sensor_id;sensor_type;location;lat;lon;timestamp;P1;durP1;ratioP1;P2;durP2;ratioP2
7215;SDS011;3649;48.798;9.798;2023-04-03T00:00:53;3.13;;;2.83;;
7215;SDS011;3649;48.798;9.798;2023-04-03T00:03:20;3.00;;;2.80;;
7215;SDS011;3649;48.798;9.798;2023-04-03T00:05:47;3.30;;;3.00;;
7215;SDS011;3649;48.798;9.798;2023-04-03T00:08:17;3.67;;;3.20;;
7215;SDS011;3649;48.798;9.798;2023-04-03T00:10:44;3.17;;;2.93;;
7215;SDS011;3649;48.798;9.798;2023-04-03T00:13:11;3.10;;;2.80;;
7215;SDS011;3649;48.798;9.798;2023-04-03T00:15:38;3.03;;;2.83;;
7215;SDS011;3649;48.798;9.798;2023-04-03T00:18:06;3.27;;;3.00;;
7215;SDS011;3649;48.798;9.798;2023-04-03T00:20:33;4.93;;;3.33;;
7215;SDS011;3649;48.798;9.798;2023-04-03T00:23:01;3.10;;;2.90;;
7215;SDS011;3649;48.798;9.798;2023-04-03T00:25:28;4.00;;;3.00;;
7215;SDS011;3649;48.798;9.798;2023-04-03T00:27:55;3.10;;;2.90;;
7215;SDS011;3649;48.798;9.798;2023-04-03T00:30:22;3.20;;;2.90;;
7215;SDS011;3649;48.798;9.798;2023-04-03T00:32:50;6.07;;;3.50;;
7215;SDS011;3649;48.798;9.798;2023-04-03T00:35:18;3.03;;;2.83;;
7215;SDS011;3649;48.798;9.798;2023-04-03T00:37:50;3.53;;;3.23;;
7215;SDS011;3649;48.798;9.798;2023-04-03T00:40:19;3.40;;;3.10;;
7215;SDS011;3649;48.798;9.798;2023-04-03T00:42:47;4.83;;;3.40;;
7215;SDS011;3649;48.798;9.798;2023-04-03T00:47:54;3.07;;;2.87;;
7215;SDS011;3649;48.798;9.798;2023-04-03T00:50:22;5.20;;;3.17;;
7215;SDS011;3649;48.798;9.798;2023-04-03T00:52:49;4.03;;;3.73;;
7215;SDS011;3649;48.798;9.798;2023-04-03T00:55:17;3.63;;;3.20;;
7215;SDS011;3649;48.798;9.798;2023-04-03T00:57:44;4.73;;;2.93;;
7215;SDS011;3649;48.798;9.798;2023-04-03T01:00:14;3.40;;;2.97;;
7215;SDS011;3649;48.798;9.798;2023-04-03T01:02:44;3.13;;;2.83;;
7215;SDS011;3649;48.798;9.798;2023-04-03T01:05:11;3.33;;;2.87;;
7215;SDS011;3649;48.798;9.798;2023-04-03T01:07:41;4.77;;;2.97;;
7215;SDS011;3649;48.798;9.798;2023-04-03T01:10:09;3.20;;;3.00;;
7215;SDS011;3649;48.798;9.798;2023-04-03T01:12:40;3.17;;;2.93;;
7215;SDS011;3649;48.798;9.798;2023-04-03T01:15:17;2.93;;;2.60;;
7215;SDS011;3649;48.798;9.798;2023-04-03T01:17:53;2.90;;;2.70;;
7215;SDS011;3649;48.798;9.798;2023-04-03T01:25:40;3.70;;;3.30;;
7215;SDS011;3649;48.798;9.798;2023-04-03T01:28:08;5.30;;;3.00;;
7215;SDS011;3649;48.798;9.798;2023-04-03T01:30:43;4.73;;;2.73;;
7215;SDS011;3649;48.798;9.798;2023-04-03T01:33:16;2.93;;;2.47;;
7215;SDS011;3649;48.798;9.798;2023-04-03T01:35:43;3.40;;;2.77;;
7215;SDS011;3649;48.798;9.798;2023-04-03T01:38:10;3.03;;;2.70;;
7215;SDS011;3649;48.798;9.798;2023-04-03T01:40:37;3.13;;;2.90;;
7215;SDS011;3649;48.798;9.798;2023-04-03T01:43:04;2.87;;;2.67;;
7215;SDS011;3649;48.798;9.798;2023-04-03T01:45:31;3.00;;;2.80;;
7215;SDS011;3649;48.798;9.798;2023-04-03T01:47:58;3.17;;;2.90;;
7215;SDS011;3649;48.798;9.798;2023-04-03T01:50:25;3.30;;;3.00;;
7215;SDS011;3649;48.798;9.798;2023-04-03T01:52:52;2.80;;;2.60;;
7215;SDS011;3649;48.798;9.798;2023-04-03T01:55:18;3.00;;;2.80;;
7215;SDS011;3649;48.798;9.798;2023-04-03T01:57:46;2.83;;;2.63;;
7215;SDS011;3649;48.798;9.798;2023-04-03T02:00:12;2.67;;;2.47;;
7215;SDS011;3649;48.798;9.798;2023-04-03T02:02:40;2.90;;;2.63;;
7215;SDS011;3649;48.798;9.798;2023-04-03T02:05:07;3.07;;;2.80;;
7215;SDS011;3649;48.798;9.798;2023-04-03T02:07:34;2.77;;;2.53;;
7215;SDS011;3649;48.798;9.798;2023-04-03T02:10:01;2.70;;;2.50;;
7215;SDS011;3649;48.798;9.798;2023-04-03T02:12:28;3.23;;;2.40;;
7215;SDS011;3649;48.798;9.798;2023-04-03T02:14:55;2.97;;;2.67;;
7215;SDS011;3649;48.798;9.798;2023-04-03T02:17:22;2.80;;;2.60;;
7215;SDS011;3649;48.798;9.798;2023-04-03T02:19:49;2.23;;;2.13;;
7215;SDS011;3649;48.798;9.798;2023-04-03T02:22:15;3.63;;;2.83;;
7215;SDS011;3649;48.798;9.798;2023-04-03T02:24:42;2.87;;;2.60;;
7215;SDS011;3649;48.798;9.798;2023-04-03T02:27:09;2.90;;;2.70;;
7215;SDS011;3649;48.798;9.798;2023-04-03T02:29:36;3.83;;;2.73;;
7215;SDS011;3649;48.798;9.798;2023-04-03T02:32:02;2.83;;;2.40;;
7215;SDS011;3649;48.798;9.798;2023-04-03T02:34:29;3.50;;;2.70;;
7215;SDS011;3649;48.798;9.798;2023-04-03T02:36:56;2.40;;;2.27;;
7215;SDS011;3649;48.798;9.798;2023-04-03T02:39:23;4.00;;;2.40;;
7215;SDS011;3649;48.798;9.798;2023-04-03T02:41:50;3.07;;;2.70;;
7215;SDS011;3649;48.798;9.798;2023-04-03T02:44:17;3.17;;;2.67;;
7215;SDS011;3649;48.798;9.798;2023-04-03T02:46:44;2.93;;;2.60;;
7215;SDS011;3649;48.798;9.798;2023-04-03T02:49:11;2.83;;;2.43;;
7215;SDS011;3649;48.798;9.798;2023-04-03T02:51:38;3.13;;;2.87;;
7215;SDS011;3649;48.798;9.798;2023-04-03T02:54:05;2.80;;;2.60;;
7215;SDS011;3649;48.798;9.798;2023-04-03T02:56:32;2.47;;;2.30;;
7215;SDS011;3649;48.798;9.798;2023-04-03T02:58:59;2.67;;;2.03;;
7215;SDS011;3649;48.798;9.798;2023-04-03T03:01:26;3.03;;;2.63;;
7215;SDS011;3649;48.798;9.798;2023-04-03T03:03:58;2.70;;;2.53;;
7215;SDS011;3649;48.798;9.798;2023-04-03T03:06:25;3.33;;;3.03;;
7215;SDS011;3649;48.798;9.798;2023-04-03T03:08:52;2.63;;;2.43;;
7215;SDS011;3649;48.798;9.798;2023-04-03T03:11:19;3.73;;;2.77;;
7215;SDS011;3649;48.798;9.798;2023-04-03T03:13:47;5.13;;;2.53;;
7215;SDS011;3649;48.798;9.798;2023-04-03T03:16:14;3.03;;;2.83;;
7215;SDS011;3649;48.798;9.798;2023-04-03T03:18:41;2.83;;;2.63;;
7215;SDS011;3649;48.798;9.798;2023-04-03T03:21:08;3.17;;;2.50;;
7215;SDS011;3649;48.798;9.798;2023-04-03T03:23:36;2.70;;;2.50;;
7215;SDS011;3649;48.798;9.798;2023-04-03T03:26:04;3.03;;;2.30;;
7215;SDS011;3649;48.798;9.798;2023-04-03T03:28:33;3.73;;;2.80;;
7215;SDS011;3649;48.798;9.798;2023-04-03T03:31:00;7.83;;;4.63;;
7215;SDS011;3649;48.798;9.798;2023-04-03T03:33:27;14.17;;;5.93;;
7215;SDS011;3649;48.798;9.798;2023-04-03T03:35:55;30.50;;;10.53;;
7215;SDS011;3649;48.798;9.798;2023-04-03T03:38:22;69.07;;;24.10;;
7215;SDS011;3649;48.798;9.798;2023-04-03T03:40:50;186.70;;;59.60;;
7215;SDS011;3649;48.798;9.798;2023-04-03T03:43:17;54.27;;;19.73;;
7215;SDS011;3649;48.798;9.798;2023-04-03T03:45:44;16.33;;;7.30;;
7215;SDS011;3649;48.798;9.798;2023-04-03T03:48:12;3.37;;;3.07;;
7215;SDS011;3649;48.798;9.798;2023-04-03T03:50:39;2.97;;;2.77;;
7215;SDS011;3649;48.798;9.798;2023-04-03T03:53:06;2.73;;;2.50;;
7215;SDS011;3649;48.798;9.798;2023-04-03T03:55:33;4.53;;;2.90;;
7215;SDS011;3649;48.798;9.798;2023-04-03T03:58:02;2.67;;;2.47;;
7215;SDS011;3649;48.798;9.798;2023-04-03T04:00:29;3.07;;;2.80;;
7215;SDS011;3649;48.798;9.798;2023-04-03T04:02:56;3.30;;;2.40;;
7215;SDS011;3649;48.798;9.798;2023-04-03T04:05:24;3.10;;;2.80;;
7215;SDS011;3649;48.798;9.798;2023-04-03T04:07:51;3.10;;;2.80;;
7215;SDS011;3649;48.798;9.798;2023-04-03T04:10:18;2.93;;;2.57;;
7215;SDS011;3649;48.798;9.798;2023-04-03T04:12:45;2.53;;;2.40;;
7215;SDS011;3649;48.798;9.798;2023-04-03T04:15:12;3.07;;;2.63;;
7215;SDS011;3649;48.798;9.798;2023-04-03T04:17:38;3.30;;;2.97;;
7215;SDS011;3649;48.798;9.798;2023-04-03T04:20:06;2.57;;;2.47;;
7215;SDS011;3649;48.798;9.798;2023-04-03T04:22:33;2.40;;;2.27;;
7215;SDS011;3649;48.798;9.798;2023-04-03T04:25:00;2.90;;;2.53;;
7215;SDS011;3649;48.798;9.798;2023-04-03T04:27:28;2.47;;;2.27;;
7215;SDS011;3649;48.798;9.798;2023-04-03T04:29:56;3.83;;;2.93;;
7215;SDS011;3649;48.798;9.798;2023-04-03T04:32:24;2.80;;;2.60;;
7215;SDS011;3649;48.798;9.798;2023-04-03T04:34:52;2.73;;;2.53;;
7215;SDS011;3649;48.798;9.798;2023-04-03T04:37:19;2.93;;;2.60;;
7215;SDS011;3649;48.798;9.798;2023-04-03T04:39:46;2.90;;;2.70;;
7215;SDS011;3649;48.798;9.798;2023-04-03T04:42:12;2.37;;;2.17;;
7215;SDS011;3649;48.798;9.798;2023-04-03T04:44:42;2.60;;;2.50;;
7215;SDS011;3649;48.798;9.798;2023-04-03T04:47:09;2.50;;;2.27;;
7215;SDS011;3649;48.798;9.798;2023-04-03T04:49:36;3.03;;;2.80;;
7215;SDS011;3649;48.798;9.798;2023-04-03T04:52:03;2.00;;;1.90;;
7215;SDS011;3649;48.798;9.798;2023-04-03T04:54:30;2.90;;;2.60;;
7215;SDS011;3649;48.798;9.798;2023-04-03T04:56:57;2.40;;;2.30;;
7215;SDS011;3649;48.798;9.798;2023-04-03T04:59:24;3.37;;;2.83;;
7215;SDS011;3649;48.798;9.798;2023-04-03T05:01:51;3.00;;;2.80;;
7215;SDS011;3649;48.798;9.798;2023-04-03T05:04:18;2.40;;;2.20;;
7215;SDS011;3649;48.798;9.798;2023-04-03T05:06:45;3.40;;;2.70;;
7215;SDS011;3649;48.798;9.798;2023-04-03T05:09:11;2.23;;;2.03;;
7215;SDS011;3649;48.798;9.798;2023-04-03T05:11:38;2.90;;;2.70;;
7215;SDS011;3649;48.798;9.798;2023-04-03T05:14:06;2.73;;;2.40;;
7215;SDS011;3649;48.798;9.798;2023-04-03T05:16:33;2.97;;;2.77;;
7215;SDS011;3649;48.798;9.798;2023-04-03T05:19:01;2.53;;;2.37;;
7215;SDS011;3649;48.798;9.798;2023-04-03T05:21:28;2.70;;;2.50;;
7215;SDS011;3649;48.798;9.798;2023-04-03T05:23:59;2.87;;;2.60;;
7215;SDS011;3649;48.798;9.798;2023-04-03T05:26:29;3.10;;;2.90;;
7215;SDS011;3649;48.798;9.798;2023-04-03T05:28:57;3.10;;;2.63;;
7215;SDS011;3649;48.798;9.798;2023-04-03T05:31:24;4.33;;;2.93;;
7215;SDS011;3649;48.798;9.798;2023-04-03T05:33:51;3.90;;;2.50;;
7215;SDS011;3649;48.798;9.798;2023-04-03T05:36:18;3.17;;;2.90;;
7215;SDS011;3649;48.798;9.798;2023-04-03T05:38:45;3.40;;;3.10;;
7215;SDS011;3649;48.798;9.798;2023-04-03T05:41:13;2.90;;;2.70;;
7215;SDS011;3649;48.798;9.798;2023-04-03T05:43:40;3.50;;;2.67;;
7215;SDS011;3649;48.798;9.798;2023-04-03T05:46:15;2.87;;;2.67;;
7215;SDS011;3649;48.798;9.798;2023-04-03T05:48:44;2.77;;;2.57;;
7215;SDS011;3649;48.798;9.798;2023-04-03T05:51:16;3.30;;;3.00;;
7215;SDS011;3649;48.798;9.798;2023-04-03T05:53:44;5.00;;;3.53;;
7215;SDS011;3649;48.798;9.798;2023-04-03T05:56:13;3.27;;;2.97;;
7215;SDS011;3649;48.798;9.798;2023-04-03T05:58:40;4.87;;;3.57;;
7215;SDS011;3649;48.798;9.798;2023-04-03T06:01:07;3.00;;;2.67;;
7215;SDS011;3649;48.798;9.798;2023-04-03T06:03:34;3.23;;;2.93;;
7215;SDS011;3649;48.798;9.798;2023-04-03T06:06:05;3.40;;;2.97;;
7215;SDS011;3649;48.798;9.798;2023-04-03T06:08:32;3.43;;;2.80;;
7215;SDS011;3649;48.798;9.798;2023-04-03T06:10:59;3.07;;;2.70;;
7215;SDS011;3649;48.798;9.798;2023-04-03T06:13:28;2.90;;;2.70;;
7215;SDS011;3649;48.798;9.798;2023-04-03T06:15:55;5.23;;;3.27;;
7215;SDS011;3649;48.798;9.798;2023-04-03T06:18:23;2.47;;;2.37;;
7215;SDS011;3649;48.798;9.798;2023-04-03T06:20:50;2.90;;;2.60;;
7215;SDS011;3649;48.798;9.798;2023-04-03T06:23:17;6.83;;;5.50;;
7215;SDS011;3649;48.798;9.798;2023-04-03T06:25:43;5.97;;;3.87;;
7215;SDS011;3649;48.798;9.798;2023-04-03T06:28:10;5.03;;;3.43;;
7215;SDS011;3649;48.798;9.798;2023-04-03T06:30:37;4.10;;;3.37;;
7215;SDS011;3649;48.798;9.798;2023-04-03T06:33:05;8.17;;;4.63;;
7215;SDS011;3649;48.798;9.798;2023-04-03T06:35:32;21.03;;;8.70;;
7215;SDS011;3649;48.798;9.798;2023-04-03T06:38:01;8.37;;;4.33;;
7215;SDS011;3649;48.798;9.798;2023-04-03T06:40:30;3.87;;;3.30;;
7215;SDS011;3649;48.798;9.798;2023-04-03T06:42:57;3.80;;;3.00;;
7215;SDS011;3649;48.798;9.798;2023-04-03T06:45:23;4.27;;;2.77;;
7215;SDS011;3649;48.798;9.798;2023-04-03T06:47:51;4.73;;;3.03;;
7215;SDS011;3649;48.798;9.798;2023-04-03T06:50:18;4.07;;;3.30;;
7215;SDS011;3649;48.798;9.798;2023-04-03T06:52:45;3.90;;;3.00;;
7215;SDS011;3649;48.798;9.798;2023-04-03T06:55:12;2.97;;;2.77;;
7215;SDS011;3649;48.798;9.798;2023-04-03T06:57:39;2.90;;;2.33;;
7215;SDS011;3649;48.798;9.798;2023-04-03T07:00:06;2.77;;;2.67;;
7215;SDS011;3649;48.798;9.798;2023-04-03T07:02:35;3.40;;;2.87;;
7215;SDS011;3649;48.798;9.798;2023-04-03T07:05:02;3.70;;;2.70;;
7215;SDS011;3649;48.798;9.798;2023-04-03T07:07:29;3.07;;;2.73;;
7215;SDS011;3649;48.798;9.798;2023-04-03T07:09:56;3.00;;;2.50;;
7215;SDS011;3649;48.798;9.798;2023-04-03T07:12:23;3.17;;;2.90;;
7215;SDS011;3649;48.798;9.798;2023-04-03T07:14:50;2.93;;;2.70;;
7215;SDS011;3649;48.798;9.798;2023-04-03T07:17:17;3.53;;;2.93;;
7215;SDS011;3649;48.798;9.798;2023-04-03T07:19:44;5.70;;;3.17;;
7215;SDS011;3649;48.798;9.798;2023-04-03T07:22:11;3.10;;;2.87;;
7215;SDS011;3649;48.798;9.798;2023-04-03T07:24:39;3.30;;;2.67;;
7215;SDS011;3649;48.798;9.798;2023-04-03T07:27:06;3.10;;;2.80;;
7215;SDS011;3649;48.798;9.798;2023-04-03T07:29:35;2.90;;;2.50;;
7215;SDS011;3649;48.798;9.798;2023-04-03T07:32:02;2.97;;;2.67;;
7215;SDS011;3649;48.798;9.798;2023-04-03T07:34:29;5.57;;;2.63;;
7215;SDS011;3649;48.798;9.798;2023-04-03T07:36:56;3.73;;;2.63;;
7215;SDS011;3649;48.798;9.798;2023-04-03T07:39:24;4.27;;;3.23;;
7215;SDS011;3649;48.798;9.798;2023-04-03T07:41:51;3.80;;;3.07;;
7215;SDS011;3649;48.798;9.798;2023-04-03T07:44:18;4.27;;;3.37;;
7215;SDS011;3649;48.798;9.798;2023-04-03T07:46:45;5.03;;;2.93;;
7215;SDS011;3649;48.798;9.798;2023-04-03T07:49:12;3.30;;;3.00;;
7215;SDS011;3649;48.798;9.798;2023-04-03T07:51:39;4.47;;;3.00;;
7215;SDS011;3649;48.798;9.798;2023-04-03T07:54:07;3.13;;;2.93;;
7215;SDS011;3649;48.798;9.798;2023-04-03T07:56:33;3.43;;;3.13;;
7215;SDS011;3649;48.798;9.798;2023-04-03T07:59:00;3.87;;;2.97;;
7215;SDS011;3649;48.798;9.798;2023-04-03T08:01:28;3.33;;;2.90;;
7215;SDS011;3649;48.798;9.798;2023-04-03T08:03:55;2.93;;;2.60;;
7215;SDS011;3649;48.798;9.798;2023-04-03T08:06:22;3.40;;;3.10;;
7215;SDS011;3649;48.798;9.798;2023-04-03T08:09:09;5.13;;;2.80;;
7215;SDS011;3649;48.798;9.798;2023-04-03T08:11:38;3.40;;;3.10;;
7215;SDS011;3649;48.798;9.798;2023-04-03T08:14:05;3.53;;;3.23;;
7215;SDS011;3649;48.798;9.798;2023-04-03T08:16:32;3.90;;;2.87;;
7215;SDS011;3649;48.798;9.798;2023-04-03T08:18:59;6.73;;;3.07;;
7215;SDS011;3649;48.798;9.798;2023-04-03T08:21:27;3.20;;;2.97;;
7215;SDS011;3649;48.798;9.798;2023-04-03T08:23:54;3.30;;;2.63;;
7215;SDS011;3649;48.798;9.798;2023-04-03T08:26:22;3.63;;;3.33;;
7215;SDS011;3649;48.798;9.798;2023-04-03T08:28:49;3.87;;;2.77;;
7215;SDS011;3649;48.798;9.798;2023-04-03T08:31:17;3.10;;;2.90;;
7215;SDS011;3649;48.798;9.798;2023-04-03T08:33:46;4.83;;;3.00;;
7215;SDS011;3649;48.798;9.798;2023-04-03T08:36:21;4.30;;;3.03;;
7215;SDS011;3649;48.798;9.798;2023-04-03T08:38:50;4.90;;;3.57;;
7215;SDS011;3649;48.798;9.798;2023-04-03T08:41:27;3.70;;;2.73;;
7215;SDS011;3649;48.798;9.798;2023-04-03T08:49:42;3.83;;;2.77;;
7215;SDS011;3649;48.798;9.798;2023-04-03T08:52:15;3.17;;;2.87;;
7215;SDS011;3649;48.798;9.798;2023-04-03T08:54:55;4.20;;;3.00;;
7215;SDS011;3649;48.798;9.798;2023-04-03T08:59:58;5.17;;;3.10;;
7215;SDS011;3649;48.798;9.798;2023-04-03T09:02:33;3.97;;;2.70;;
7215;SDS011;3649;48.798;9.798;2023-04-03T09:05:11;3.60;;;2.77;;
7215;SDS011;3649;48.798;9.798;2023-04-03T09:07:44;4.20;;;2.73;;
7215;SDS011;3649;48.798;9.798;2023-04-03T09:10:34;4.37;;;2.60;;
7215;SDS011;3649;48.798;9.798;2023-04-03T09:13:06;4.37;;;2.77;;
7215;SDS011;3649;48.798;9.798;2023-04-03T09:16:19;2.80;;;2.57;;
7215;SDS011;3649;48.798;9.798;2023-04-03T09:18:48;4.27;;;2.63;;
7215;SDS011;3649;48.798;9.798;2023-04-03T09:21:37;6.23;;;3.20;;
7215;SDS011;3649;48.798;9.798;2023-04-03T09:24:09;2.77;;;2.57;;
7215;SDS011;3649;48.798;9.798;2023-04-03T09:27:13;2.97;;;2.60;;
7215;SDS011;3649;48.798;9.798;2023-04-03T09:29:38;2.77;;;2.47;;
7215;SDS011;3649;48.798;9.798;2023-04-03T09:32:18;5.33;;;2.73;;
7215;SDS011;3649;48.798;9.798;2023-04-03T09:34:49;3.90;;;3.10;;
7215;SDS011;3649;48.798;9.798;2023-04-03T09:37:36;3.77;;;2.40;;
7215;SDS011;3649;48.798;9.798;2023-04-03T09:43:19;3.97;;;2.90;;
7215;SDS011;3649;48.798;9.798;2023-04-03T09:45:49;3.13;;;2.67;;
7215;SDS011;3649;48.798;9.798;2023-04-03T09:48:19;4.30;;;3.00;;
7215;SDS011;3649;48.798;9.798;2023-04-03T09:53:27;2.80;;;2.60;;
7215;SDS011;3649;48.798;9.798;2023-04-03T09:55:57;2.53;;;2.30;;
7215;SDS011;3649;48.798;9.798;2023-04-03T09:58:30;4.53;;;2.70;;
7215;SDS011;3649;48.798;9.798;2023-04-03T10:06:33;3.07;;;2.20;;
7215;SDS011;3649;48.798;9.798;2023-04-03T10:09:18;2.30;;;2.20;;
7215;SDS011;3649;48.798;9.798;2023-04-03T10:14:39;3.20;;;2.60;;
7215;SDS011;3649;48.798;9.798;2023-04-03T10:28:57;2.93;;;2.60;;
7215;SDS011;3649;48.798;9.798;2023-04-03T10:34:32;2.57;;;2.37;;
7215;SDS011;3649;48.798;9.798;2023-04-03T10:39:47;3.97;;;2.83;;
7215;SDS011;3649;48.798;9.798;2023-04-03T10:42:32;3.00;;;2.43;;
7215;SDS011;3649;48.798;9.798;2023-04-03T10:56:03;3.33;;;2.60;;
7215;SDS011;3649;48.798;9.798;2023-04-03T10:58:43;3.00;;;2.10;;
7215;SDS011;3649;48.798;9.798;2023-04-03T11:01:16;2.70;;;2.50;;
7215;SDS011;3649;48.798;9.798;2023-04-03T11:03:52;3.20;;;2.57;;
7215;SDS011;3649;48.798;9.798;2023-04-03T11:06:22;2.53;;;1.90;;
7215;SDS011;3649;48.798;9.798;2023-04-03T11:08:53;2.10;;;2.00;;
7215;SDS011;3649;48.798;9.798;2023-04-03T11:11:33;5.60;;;2.70;;
7215;SDS011;3649;48.798;9.798;2023-04-03T11:14:14;2.73;;;1.90;;
7215;SDS011;3649;48.798;9.798;2023-04-03T11:17:04;2.30;;;2.03;;
7215;SDS011;3649;48.798;9.798;2023-04-03T11:19:52;2.90;;;2.47;;
7215;SDS011;3649;48.798;9.798;2023-04-03T11:22:41;2.37;;;2.10;;
7215;SDS011;3649;48.798;9.798;2023-04-03T11:25:23;3.33;;;2.50;;
7215;SDS011;3649;48.798;9.798;2023-04-03T11:27:59;2.30;;;2.20;;
7215;SDS011;3649;48.798;9.798;2023-04-03T11:30:30;2.50;;;2.00;;
7215;SDS011;3649;48.798;9.798;2023-04-03T11:35:43;4.50;;;2.57;;
7215;SDS011;3649;48.798;9.798;2023-04-03T11:38:35;2.90;;;1.90;;
7215;SDS011;3649;48.798;9.798;2023-04-03T11:41:03;3.50;;;2.03;;
7215;SDS011;3649;48.798;9.798;2023-04-03T11:43:33;2.20;;;2.10;;
7215;SDS011;3649;48.798;9.798;2023-04-03T11:46:06;2.50;;;2.07;;
7215;SDS011;3649;48.798;9.798;2023-04-03T11:51:02;2.50;;;2.30;;
7215;SDS011;3649;48.798;9.798;2023-04-03T11:53:44;1.90;;;1.80;;
7215;SDS011;3649;48.798;9.798;2023-04-03T11:58:52;3.20;;;2.03;;
7215;SDS011;3649;48.798;9.798;2023-04-03T12:04:11;2.73;;;2.53;;
7215;SDS011;3649;48.798;9.798;2023-04-03T12:06:47;7.67;;;2.27;;
7215;SDS011;3649;48.798;9.798;2023-04-03T12:09:29;2.07;;;1.97;;
7215;SDS011;3649;48.798;9.798;2023-04-03T12:12:22;2.27;;;1.90;;
7215;SDS011;3649;48.798;9.798;2023-04-03T12:14:50;3.07;;;1.73;;
7215;SDS011;3649;48.798;9.798;2023-04-03T12:17:22;1.97;;;1.87;;
7215;SDS011;3649;48.798;9.798;2023-04-03T12:19:53;2.27;;;1.90;;
7215;SDS011;3649;48.798;9.798;2023-04-03T12:22:20;6.67;;;2.10;;
7215;SDS011;3649;48.798;9.798;2023-04-03T12:24:48;2.30;;;2.10;;
7215;SDS011;3649;48.798;9.798;2023-04-03T12:27:21;3.50;;;2.43;;
7215;SDS011;3649;48.798;9.798;2023-04-03T12:35:39;5.07;;;2.00;;
7215;SDS011;3649;48.798;9.798;2023-04-03T12:46:35;2.10;;;1.90;;
7215;SDS011;3649;48.798;9.798;2023-04-03T12:51:50;3.37;;;2.40;;
7215;SDS011;3649;48.798;9.798;2023-04-03T12:54:31;2.60;;;2.37;;
7215;SDS011;3649;48.798;9.798;2023-04-03T12:57:08;2.10;;;1.93;;
7215;SDS011;3649;48.798;9.798;2023-04-03T12:59:37;2.70;;;2.30;;
7215;SDS011;3649;48.798;9.798;2023-04-03T13:02:07;3.37;;;2.13;;
7215;SDS011;3649;48.798;9.798;2023-04-03T13:04:45;1.97;;;1.87;;
7215;SDS011;3649;48.798;9.798;2023-04-03T13:07:23;3.27;;;1.90;;
7215;SDS011;3649;48.798;9.798;2023-04-03T13:09:55;3.23;;;1.90;;
7215;SDS011;3649;48.798;9.798;2023-04-03T13:12:23;3.50;;;2.13;;
7215;SDS011;3649;48.798;9.798;2023-04-03T13:14:52;2.37;;;2.07;;
7215;SDS011;3649;48.798;9.798;2023-04-03T13:17:25;4.17;;;2.00;;
7215;SDS011;3649;48.798;9.798;2023-04-03T13:19:54;2.07;;;1.90;;
7215;SDS011;3649;48.798;9.798;2023-04-03T13:22:34;2.67;;;2.47;;
7215;SDS011;3649;48.798;9.798;2023-04-03T13:25:06;4.13;;;2.83;;
7215;SDS011;3649;48.798;9.798;2023-04-03T13:27:35;2.30;;;2.10;;
7215;SDS011;3649;48.798;9.798;2023-04-03T13:30:05;3.97;;;2.40;;
7215;SDS011;3649;48.798;9.798;2023-04-03T13:32:33;2.40;;;2.20;;
7215;SDS011;3649;48.798;9.798;2023-04-03T13:35:01;2.57;;;2.37;;
7215;SDS011;3649;48.798;9.798;2023-04-03T13:37:52;2.67;;;2.27;;
7215;SDS011;3649;48.798;9.798;2023-04-03T13:40:22;3.13;;;2.53;;
7215;SDS011;3649;48.798;9.798;2023-04-03T13:43:03;2.47;;;2.27;;
7215;SDS011;3649;48.798;9.798;2023-04-03T13:45:32;2.60;;;2.50;;
7215;SDS011;3649;48.798;9.798;2023-04-03T13:53:27;2.20;;;2.10;;
7215;SDS011;3649;48.798;9.798;2023-04-03T13:58:34;3.90;;;2.97;;
7215;SDS011;3649;48.798;9.798;2023-04-03T14:04:11;2.73;;;2.40;;
7215;SDS011;3649;48.798;9.798;2023-04-03T14:06:41;3.37;;;2.37;;
7215;SDS011;3649;48.798;9.798;2023-04-03T14:09:08;3.87;;;2.07;;
7215;SDS011;3649;48.798;9.798;2023-04-03T14:11:34;3.43;;;2.30;;
7215;SDS011;3649;48.798;9.798;2023-04-03T14:14:05;2.53;;;2.33;;
7215;SDS011;3649;48.798;9.798;2023-04-03T14:16:38;2.70;;;2.30;;
7215;SDS011;3649;48.798;9.798;2023-04-03T14:19:11;2.73;;;2.13;;
7215;SDS011;3649;48.798;9.798;2023-04-03T14:21:44;2.50;;;2.30;;
7215;SDS011;3649;48.798;9.798;2023-04-03T14:24:11;2.30;;;2.20;;
7215;SDS011;3649;48.798;9.798;2023-04-03T14:26:38;2.53;;;2.33;;
7215;SDS011;3649;48.798;9.798;2023-04-03T14:29:05;3.40;;;2.80;;
7215;SDS011;3649;48.798;9.798;2023-04-03T14:31:32;2.10;;;2.00;;
7215;SDS011;3649;48.798;9.798;2023-04-03T14:33:59;3.63;;;2.10;;
7215;SDS011;3649;48.798;9.798;2023-04-03T14:36:27;2.90;;;2.27;;
7215;SDS011;3649;48.798;9.798;2023-04-03T14:38:55;3.37;;;2.20;;
7215;SDS011;3649;48.798;9.798;2023-04-03T14:41:23;3.57;;;2.00;;
7215;SDS011;3649;48.798;9.798;2023-04-03T14:43:51;2.73;;;2.03;;
7215;SDS011;3649;48.798;9.798;2023-04-03T14:46:21;3.53;;;2.20;;
7215;SDS011;3649;48.798;9.798;2023-04-03T14:49:14;2.60;;;2.37;;
7215;SDS011;3649;48.798;9.798;2023-04-03T14:51:44;2.07;;;1.90;;
7215;SDS011;3649;48.798;9.798;2023-04-03T14:54:12;3.90;;;2.20;;
7215;SDS011;3649;48.798;9.798;2023-04-03T14:56:41;2.73;;;2.00;;
7215;SDS011;3649;48.798;9.798;2023-04-03T14:59:09;3.17;;;2.30;;
7215;SDS011;3649;48.798;9.798;2023-04-03T15:01:41;2.17;;;2.07;;
7215;SDS011;3649;48.798;9.798;2023-04-03T15:04:12;2.50;;;2.30;;
7215;SDS011;3649;48.798;9.798;2023-04-03T15:06:41;2.93;;;2.50;;
7215;SDS011;3649;48.798;9.798;2023-04-03T15:09:18;2.63;;;2.43;;
7215;SDS011;3649;48.798;9.798;2023-04-03T15:11:48;2.37;;;2.17;;
7215;SDS011;3649;48.798;9.798;2023-04-03T15:14:16;2.50;;;2.30;;
7215;SDS011;3649;48.798;9.798;2023-04-03T15:17:01;3.33;;;2.30;;
7215;SDS011;3649;48.798;9.798;2023-04-03T15:19:30;4.93;;;2.50;;
7215;SDS011;3649;48.798;9.798;2023-04-03T15:22:02;2.00;;;1.90;;
7215;SDS011;3649;48.798;9.798;2023-04-03T15:24:29;3.73;;;2.37;;
7215;SDS011;3649;48.798;9.798;2023-04-03T15:26:56;2.23;;;2.03;;
7215;SDS011;3649;48.798;9.798;2023-04-03T15:29:22;2.10;;;2.00;;
7215;SDS011;3649;48.798;9.798;2023-04-03T15:31:49;3.83;;;2.30;;
7215;SDS011;3649;48.798;9.798;2023-04-03T15:34:19;3.57;;;2.20;;
7215;SDS011;3649;48.798;9.798;2023-04-03T15:36:48;2.10;;;1.97;;
7215;SDS011;3649;48.798;9.798;2023-04-03T15:39:16;2.23;;;2.00;;
7215;SDS011;3649;48.798;9.798;2023-04-03T15:41:43;3.87;;;2.30;;
7215;SDS011;3649;48.798;9.798;2023-04-03T15:44:11;2.33;;;2.17;;
7215;SDS011;3649;48.798;9.798;2023-04-03T15:46:39;2.70;;;2.13;;
7215;SDS011;3649;48.798;9.798;2023-04-03T15:49:08;5.10;;;2.10;;
7215;SDS011;3649;48.798;9.798;2023-04-03T15:51:35;2.60;;;2.40;;
7215;SDS011;3649;48.798;9.798;2023-04-03T15:54:02;3.80;;;2.27;;
7215;SDS011;3649;48.798;9.798;2023-04-03T15:56:29;2.60;;;2.20;;
7215;SDS011;3649;48.798;9.798;2023-04-03T15:58:55;4.30;;;2.27;;
7215;SDS011;3649;48.798;9.798;2023-04-03T16:01:22;2.33;;;2.10;;
7215;SDS011;3649;48.798;9.798;2023-04-03T16:03:49;4.13;;;2.60;;
7215;SDS011;3649;48.798;9.798;2023-04-03T16:06:17;2.80;;;2.60;;
7215;SDS011;3649;48.798;9.798;2023-04-03T16:08:46;2.97;;;2.40;;
7215;SDS011;3649;48.798;9.798;2023-04-03T16:11:14;2.07;;;1.97;;
7215;SDS011;3649;48.798;9.798;2023-04-03T16:13:40;3.07;;;2.70;;
7215;SDS011;3649;48.798;9.798;2023-04-03T16:16:08;2.53;;;2.33;;
7215;SDS011;3649;48.798;9.798;2023-04-03T16:18:36;2.10;;;2.00;;
7215;SDS011;3649;48.798;9.798;2023-04-03T16:21:03;2.60;;;2.20;;
7215;SDS011;3649;48.798;9.798;2023-04-03T16:23:31;3.40;;;2.50;;
7215;SDS011;3649;48.798;9.798;2023-04-03T16:25:58;3.87;;;2.10;;
7215;SDS011;3649;48.798;9.798;2023-04-03T16:28:25;2.83;;;1.97;;
7215;SDS011;3649;48.798;9.798;2023-04-03T16:30:52;3.33;;;2.13;;
7215;SDS011;3649;48.798;9.798;2023-04-03T16:33:19;3.67;;;2.70;;
7215;SDS011;3649;48.798;9.798;2023-04-03T16:35:48;4.67;;;3.40;;
7215;SDS011;3649;48.798;9.798;2023-04-03T16:38:16;3.37;;;2.60;;
7215;SDS011;3649;48.798;9.798;2023-04-03T16:40:45;2.50;;;2.30;;
7215;SDS011;3649;48.798;9.798;2023-04-03T16:43:12;4.27;;;2.67;;
7215;SDS011;3649;48.798;9.798;2023-04-03T16:45:39;4.27;;;2.73;;
7215;SDS011;3649;48.798;9.798;2023-04-03T16:48:06;5.27;;;3.30;;
7215;SDS011;3649;48.798;9.798;2023-04-03T16:50:33;3.10;;;2.80;;
7215;SDS011;3649;48.798;9.798;2023-04-03T16:53:00;3.47;;;3.07;;
7215;SDS011;3649;48.798;9.798;2023-04-03T16:55:29;4.17;;;2.40;;
7215;SDS011;3649;48.798;9.798;2023-04-03T16:57:56;4.23;;;2.57;;
7215;SDS011;3649;48.798;9.798;2023-04-03T17:00:23;7.30;;;3.33;;
7215;SDS011;3649;48.798;9.798;2023-04-03T17:02:49;4.57;;;3.27;;
7215;SDS011;3649;48.798;9.798;2023-04-03T17:05:16;7.07;;;3.27;;
7215;SDS011;3649;48.798;9.798;2023-04-03T17:07:43;7.37;;;3.17;;